createdAt,value
2019-03-31T00:01:34.389Z,7.34
2019-03-31T00:04:06.387Z,7.24
2019-03-31T00:06:37.443Z,7.04
2019-03-31T00:09:08.575Z,6.98
2019-03-31T00:11:39.678Z,6.93
2019-03-31T00:14:11.744Z,6.90
2019-03-31T00:16:44.641Z,6.80
2019-03-31T00:19:15.751Z,6.56
2019-03-31T00:21:46.773Z,6.55
2019-03-31T00:24:17.818Z,6.56
2019-03-31T00:26:48.825Z,6.57
2019-03-31T00:29:19.873Z,6.62
2019-03-31T00:31:50.785Z,6.65
2019-03-31T00:34:21.824Z,6.67
2019-03-31T00:36:52.836Z,6.73
2019-03-31T00:39:23.755Z,6.70
2019-03-31T00:41:54.652Z,6.74
2019-03-31T00:44:25.596Z,6.83
2019-03-31T00:46:56.524Z,7.00
2019-03-31T00:49:27.646Z,6.98
2019-03-31T00:51:58.634Z,7.02
2019-03-31T00:54:29.665Z,6.97
2019-03-31T00:57:00.665Z,6.86
2019-03-31T00:59:31.697Z,6.77
2019-03-31T01:02:05.357Z,6.75
2019-03-31T01:04:36.458Z,6.71
2019-03-31T01:07:07.850Z,6.68
2019-03-31T01:09:38.932Z,6.66
2019-03-31T01:12:09.935Z,6.63
2019-03-31T01:14:40.910Z,6.61
2019-03-31T01:17:13.419Z,6.63
2019-03-31T01:19:44.542Z,6.63
2019-03-31T01:22:15.454Z,6.60
2019-03-31T01:24:46.476Z,6.59
2019-03-31T01:27:17.617Z,6.49
2019-03-31T01:29:49.023Z,6.43
2019-03-31T01:32:20.379Z,6.47
2019-03-31T01:34:51.387Z,6.42
2019-03-31T01:37:24.005Z,6.47
2019-03-31T01:39:56.774Z,6.40
2019-03-31T01:42:27.789Z,6.43
2019-03-31T01:44:58.791Z,6.35
2019-03-31T01:47:29.853Z,6.31
2019-03-31T01:50:00.894Z,6.32
2019-03-31T01:52:33.427Z,6.31
2019-03-31T01:55:05.726Z,6.22
2019-03-31T01:57:36.610Z,6.17
2019-03-31T02:00:10.564Z,6.20
2019-03-31T02:02:41.553Z,6.19
2019-03-31T02:05:12.710Z,6.17
2019-03-31T02:07:43.757Z,6.17
2019-03-31T02:10:14.767Z,6.16
2019-03-31T02:12:45.671Z,6.13
2019-03-31T02:15:16.655Z,6.05
2019-03-31T02:17:48.454Z,5.82
2019-03-31T02:20:19.536Z,5.79
2019-03-31T02:22:50.532Z,5.72
2019-03-31T02:25:21.537Z,5.64
2019-03-31T02:27:54.127Z,5.55
2019-03-31T02:30:25.292Z,5.48
2019-03-31T02:32:56.205Z,5.46
2019-03-31T02:35:27.140Z,5.54
2019-03-31T02:37:58.080Z,5.63
2019-03-31T02:40:29.107Z,5.68
2019-03-31T02:43:00.028Z,5.70
2019-03-31T02:45:31.202Z,5.69
2019-03-31T02:48:02.105Z,5.70
2019-03-31T02:50:39.026Z,5.64
2019-03-31T02:53:10.101Z,5.59
2019-03-31T02:55:41.102Z,5.56
2019-03-31T02:58:14.316Z,5.60
2019-03-31T03:00:45.503Z,5.54
2019-03-31T03:03:17.235Z,5.57
2019-03-31T03:05:49.804Z,5.56
2019-03-31T03:08:21.903Z,5.57
2019-03-31T03:10:52.868Z,5.59
2019-03-31T03:13:24.830Z,5.52
2019-03-31T03:16:02.980Z,5.50
2019-03-31T03:18:34.756Z,5.52
2019-03-31T03:21:06.018Z,5.44
2019-03-31T03:23:36.962Z,5.43
2019-03-31T03:26:08.006Z,5.44
2019-03-31T03:28:39.176Z,5.40
2019-03-31T03:31:15.201Z,5.42
2019-03-31T03:33:42.908Z,5.41
2019-03-31T03:36:14.023Z,5.40
2019-03-31T03:38:45.030Z,5.37
2019-03-31T03:41:15.978Z,5.40
2019-03-31T03:43:55.672Z,5.47
2019-03-31T03:46:19.688Z,5.45
2019-03-31T03:48:50.746Z,5.42
2019-03-31T03:51:21.681Z,5.38
2019-03-31T03:53:52.630Z,5.45
2019-03-31T03:56:23.560Z,5.43
2019-03-31T03:58:54.473Z,5.39
2019-03-31T04:01:26.830Z,5.41
2019-03-31T04:03:57.798Z,5.37
2019-03-31T04:06:28.772Z,5.32
2019-03-31T04:08:59.755Z,5.34
2019-03-31T04:11:30.735Z,5.31
2019-03-31T04:14:01.680Z,5.30
2019-03-31T04:16:32.592Z,5.42
2019-03-31T04:19:04.409Z,5.48
2019-03-31T04:21:35.438Z,5.51
2019-03-31T04:24:06.428Z,5.56
2019-03-31T04:26:37.656Z,5.56
2019-03-31T04:29:08.766Z,5.59
2019-03-31T04:31:39.875Z,5.63
2019-03-31T04:34:10.794Z,5.61
2019-03-31T04:36:41.750Z,5.51
2019-03-31T04:39:12.676Z,5.68
2019-03-31T04:41:43.658Z,5.60
2019-03-31T04:44:14.616Z,5.65
2019-03-31T04:46:45.590Z,5.70
2019-03-31T04:49:16.508Z,6.01
2019-03-31T04:51:47.468Z,6.08
2019-03-31T04:54:18.393Z,6.26
2019-03-31T04:56:49.426Z,6.34
2019-03-31T04:59:20.350Z,6.39
2019-03-31T05:01:51.419Z,6.55
2019-03-31T05:04:22.336Z,6.50
2019-03-31T05:06:53.290Z,6.64
2019-03-31T05:09:24.231Z,6.74
2019-03-31T05:11:55.192Z,6.93
2019-03-31T05:14:27.184Z,7.05
2019-03-31T05:16:58.351Z,7.10
2019-03-31T05:19:30.193Z,7.18
2019-03-31T05:22:01.669Z,7.27
2019-03-31T05:24:33.731Z,7.62
2019-03-31T05:27:04.697Z,7.84
2019-03-31T05:29:35.618Z,7.92
2019-03-31T05:32:06.598Z,7.82
2019-03-31T05:34:37.663Z,7.94
2019-03-31T05:37:08.602Z,7.93
2019-03-31T05:39:39.592Z,7.85
2019-03-31T05:42:10.543Z,8.01
2019-03-31T05:44:41.524Z,8.00
2019-03-31T05:47:12.512Z,8.70
2019-03-31T05:49:43.462Z,8.90
2019-03-31T05:52:14.505Z,8.79
2019-03-31T05:54:45.523Z,8.66
2019-03-31T05:57:16.469Z,8.78
2019-03-31T05:59:47.378Z,8.81
2019-03-31T06:02:18.327Z,8.75
2019-03-31T06:04:49.240Z,8.86
2019-03-31T06:07:20.212Z,9.09
2019-03-31T06:09:51.105Z,9.14
2019-03-31T06:12:22.063Z,9.39
2019-03-31T06:14:52.965Z,9.58
2019-03-31T06:17:24.065Z,9.82
2019-03-31T06:19:55.765Z,9.89
2019-03-31T06:22:26.867Z,10.15
2019-03-31T06:24:57.782Z,10.10
2019-03-31T06:27:28.936Z,10.05
2019-03-31T06:29:59.855Z,10.12
2019-03-31T06:32:30.874Z,10.40
2019-03-31T06:35:01.802Z,10.52
2019-03-31T06:37:32.843Z,10.70
2019-03-31T06:40:05.063Z,10.66
2019-03-31T06:42:36.024Z,10.70
2019-03-31T06:45:07.218Z,10.96
2019-03-31T06:47:38.181Z,11.06
2019-03-31T06:50:10.747Z,11.29
2019-03-31T06:52:41.694Z,11.52
2019-03-31T06:55:12.686Z,11.59
2019-03-31T06:57:43.717Z,11.63
2019-03-31T07:00:14.726Z,11.82
2019-03-31T07:02:47.267Z,11.99
2019-03-31T07:05:18.220Z,12.10
2019-03-31T07:07:49.405Z,12.18
2019-03-31T07:10:20.436Z,12.36
2019-03-31T07:12:51.477Z,12.46
2019-03-31T07:15:22.502Z,12.73
2019-03-31T07:17:54.058Z,12.69
2019-03-31T07:20:26.500Z,12.96
2019-03-31T07:22:57.687Z,12.89
2019-03-31T07:25:28.824Z,12.96
2019-03-31T07:28:00.040Z,13.23
2019-03-31T07:30:31.114Z,13.30
2019-03-31T07:33:02.483Z,13.45
2019-03-31T07:35:38.850Z,13.51
2019-03-31T07:38:08.802Z,13.73
2019-03-31T07:40:39.766Z,13.78
2019-03-31T07:43:11.299Z,13.92
2019-03-31T07:45:42.628Z,14.15
2019-03-31T07:48:13.710Z,14.09
2019-03-31T07:50:46.363Z,13.75
2019-03-31T07:53:18.872Z,13.99
2019-03-31T07:55:49.851Z,14.21
2019-03-31T07:58:20.825Z,14.23
2019-03-31T08:00:51.812Z,14.34
2019-03-31T08:03:23.047Z,14.25
2019-03-31T08:05:54.043Z,14.47
2019-03-31T08:08:25.088Z,14.56
2019-03-31T08:10:56.008Z,14.61
2019-03-31T08:13:26.937Z,14.90
2019-03-31T08:15:57.893Z,15.02
2019-03-31T08:18:28.854Z,15.35
2019-03-31T08:21:00.772Z,15.64
2019-03-31T08:23:31.936Z,15.47
2019-03-31T08:26:03.331Z,15.46
2019-03-31T08:28:36.188Z,15.37
2019-03-31T08:31:07.197Z,15.42
2019-03-31T08:33:38.235Z,15.90
2019-03-31T08:36:11.895Z,15.91
2019-03-31T08:38:42.926Z,15.88
2019-03-31T08:41:13.870Z,15.53
2019-03-31T08:43:46.398Z,15.67
2019-03-31T08:46:17.562Z,15.48
2019-03-31T08:48:48.545Z,15.61
2019-03-31T08:51:19.453Z,15.77
2019-03-31T08:53:50.463Z,15.90
2019-03-31T08:56:21.448Z,15.87
2019-03-31T08:58:52.458Z,15.89
2019-03-31T09:01:26.424Z,16.13
2019-03-31T09:03:57.365Z,16.05
2019-03-31T09:06:28.350Z,16.08
2019-03-31T09:08:59.416Z,15.99
2019-03-31T09:11:31.886Z,16.15
2019-03-31T09:14:03.038Z,16.24
2019-03-31T09:16:33.970Z,16.39
2019-03-31T09:19:05.981Z,16.40
2019-03-31T09:21:37.837Z,16.60
2019-03-31T09:24:08.936Z,16.60
2019-03-31T09:26:39.972Z,16.81
2019-03-31T09:29:10.976Z,17.49
2019-03-31T09:31:41.900Z,17.63
2019-03-31T09:34:12.915Z,17.46
2019-03-31T09:36:44.016Z,17.73
2019-03-31T09:39:15.040Z,17.91
2019-03-31T09:41:45.961Z,17.61
2019-03-31T09:44:16.908Z,17.50
2019-03-31T09:46:47.837Z,17.85
2019-03-31T09:49:18.772Z,18.00
2019-03-31T09:51:49.700Z,18.25
2019-03-31T09:54:20.694Z,18.40
2019-03-31T09:56:51.729Z,18.54
2019-03-31T09:59:22.614Z,18.02
2019-03-31T10:01:53.555Z,18.47
2019-03-31T10:04:24.467Z,18.24
2019-03-31T10:06:55.437Z,17.67
2019-03-31T10:09:26.473Z,17.62
2019-03-31T10:11:57.460Z,17.84
2019-03-31T10:14:28.702Z,18.23
2019-03-31T10:16:59.599Z,18.46
2019-03-31T10:19:30.613Z,18.18
2019-03-31T10:22:02.446Z,18.53
2019-03-31T10:24:33.605Z,18.40
2019-03-31T10:27:04.544Z,18.59
2019-03-31T10:29:35.540Z,18.76
2019-03-31T10:32:06.518Z,18.62
2019-03-31T10:34:37.461Z,18.07
2019-03-31T10:37:08.352Z,18.35
2019-03-31T10:39:39.329Z,18.34
2019-03-31T10:42:10.022Z,18.31
2019-03-31T10:44:41.088Z,17.77
2019-03-31T10:47:12.075Z,18.33
2019-03-31T10:49:43.039Z,18.35
2019-03-31T10:52:13.979Z,18.36
2019-03-31T10:54:44.959Z,18.40
2019-03-31T10:57:16.042Z,18.87
2019-03-31T10:59:48.124Z,18.99
2019-03-31T11:02:19.170Z,19.05
2019-03-31T11:04:50.276Z,18.87
2019-03-31T11:07:21.194Z,18.58
2019-03-31T11:09:52.128Z,18.93
2019-03-31T11:12:23.125Z,18.60
2019-03-31T11:14:54.062Z,18.98
2019-03-31T11:17:25.277Z,19.19
2019-03-31T11:19:56.441Z,18.68
2019-03-31T11:22:41.834Z,19.17
2019-03-31T11:25:21.091Z,19.26
2019-03-31T11:27:47.612Z,19.43
2019-03-31T11:30:18.702Z,19.45
2019-03-31T11:32:49.751Z,19.39
2019-03-31T11:35:20.887Z,19.51
2019-03-31T11:37:51.876Z,19.60
2019-03-31T11:40:22.947Z,19.83
2019-03-31T11:42:55.739Z,19.80
2019-03-31T11:45:26.708Z,19.77
2019-03-31T11:47:57.631Z,19.74
2019-03-31T11:50:28.630Z,19.68
2019-03-31T11:52:59.750Z,19.81
2019-03-31T11:55:30.895Z,19.86
2019-03-31T11:58:01.884Z,20.04
2019-03-31T12:00:34.468Z,20.03
2019-03-31T12:03:05.487Z,19.98
2019-03-31T12:05:36.634Z,20.13
2019-03-31T12:08:07.693Z,19.53
2019-03-31T12:10:38.712Z,19.84
2019-03-31T12:13:09.785Z,19.58
2019-03-31T12:15:40.846Z,19.87
2019-03-31T12:18:11.829Z,19.51
2019-03-31T12:20:42.796Z,19.71
2019-03-31T12:23:14.627Z,19.99
2019-03-31T12:25:46.808Z,20.31
2019-03-31T12:28:17.820Z,19.67
2019-03-31T12:30:48.778Z,19.64
2019-03-31T12:33:19.690Z,19.65
2019-03-31T12:35:51.716Z,20.00
2019-03-31T12:38:23.754Z,20.13
2019-03-31T12:40:54.885Z,20.33
2019-03-31T12:43:25.827Z,20.18
2019-03-31T12:45:57.080Z,20.12
2019-03-31T12:48:31.457Z,19.86
2019-03-31T12:51:00.952Z,19.84
2019-03-31T12:53:31.968Z,20.10
2019-03-31T12:56:03.022Z,19.89
2019-03-31T12:58:33.996Z,19.76
2019-03-31T13:01:04.940Z,19.89
2019-03-31T13:03:35.890Z,20.17
2019-03-31T13:06:06.975Z,20.33
2019-03-31T13:08:37.900Z,20.01
2019-03-31T13:11:13.904Z,20.03
2019-03-31T13:13:45.603Z,20.01
2019-03-31T13:16:16.637Z,20.01
2019-03-31T13:18:47.544Z,20.20
2019-03-31T13:21:18.520Z,20.26
2019-03-31T13:23:52.022Z,19.92
2019-03-31T13:26:24.728Z,19.86
2019-03-31T13:28:55.700Z,19.95
2019-03-31T13:31:28.563Z,19.71
2019-03-31T13:33:59.606Z,19.85
2019-03-31T13:36:30.616Z,19.81
2019-03-31T13:39:06.676Z,19.89
2019-03-31T13:41:42.429Z,19.86
2019-03-31T13:44:13.450Z,19.70
2019-03-31T13:46:44.579Z,19.71
2019-03-31T13:49:17.145Z,19.78
2019-03-31T13:51:52.024Z,19.51
2019-03-31T13:54:23.265Z,19.49
2019-03-31T13:56:56.447Z,19.38
2019-03-31T13:59:27.841Z,19.49
2019-03-31T14:02:00.402Z,19.58
2019-03-31T14:04:35.309Z,19.66
2019-03-31T14:07:05.499Z,19.70
2019-03-31T14:09:39.717Z,19.54
2019-03-31T14:12:10.692Z,19.44
2019-03-31T14:14:41.710Z,19.34
2019-03-31T14:17:12.917Z,19.31
2019-03-31T14:19:44.001Z,19.30
2019-03-31T14:22:14.937Z,19.30
2019-03-31T14:24:46.885Z,19.31
2019-03-31T14:27:17.979Z,19.41
2019-03-31T14:29:48.930Z,19.57
2019-03-31T14:32:20.209Z,19.77
2019-03-31T14:34:51.128Z,19.80
2019-03-31T14:37:22.154Z,19.84
2019-03-31T14:39:53.122Z,19.90
2019-03-31T14:42:24.155Z,19.88
2019-03-31T14:44:55.130Z,19.95
2019-03-31T14:47:26.285Z,20.03
2019-03-31T14:49:57.189Z,20.12
2019-03-31T14:52:29.669Z,20.48
2019-03-31T14:55:00.763Z,20.31
2019-03-31T14:57:32.846Z,20.29
2019-03-31T15:00:14.527Z,20.09
2019-03-31T15:02:40.498Z,20.18
2019-03-31T15:05:11.460Z,20.29
2019-03-31T15:07:42.443Z,20.24
2019-03-31T15:10:13.375Z,20.35
2019-03-31T15:12:46.119Z,20.36
2019-03-31T15:15:17.193Z,20.52
2019-03-31T15:17:48.235Z,20.61
2019-03-31T15:20:19.251Z,20.23
2019-03-31T15:22:51.560Z,19.90
2019-03-31T15:25:23.485Z,19.56
2019-03-31T15:27:54.543Z,19.17
2019-03-31T15:30:25.572Z,18.92
2019-03-31T15:32:56.661Z,18.77
2019-03-31T15:35:27.752Z,18.62
2019-03-31T15:37:58.822Z,18.55
2019-03-31T15:40:29.816Z,18.43
2019-03-31T15:43:00.825Z,18.36
2019-03-31T15:45:31.771Z,18.30
2019-03-31T15:48:02.780Z,18.27
2019-03-31T15:50:33.696Z,18.18
2019-03-31T15:53:04.777Z,18.12
2019-03-31T15:55:35.684Z,18.05
2019-03-31T15:58:07.545Z,17.94
2019-03-31T16:00:38.574Z,17.88
2019-03-31T16:03:09.744Z,17.81
2019-03-31T16:05:40.748Z,17.83
2019-03-31T16:08:11.848Z,17.86
2019-03-31T16:10:42.769Z,17.84
2019-03-31T16:13:13.814Z,17.82
2019-03-31T16:15:46.613Z,17.80
2019-03-31T16:18:17.712Z,17.72
2019-03-31T16:20:48.681Z,17.73
2019-03-31T16:23:21.527Z,17.73
2019-03-31T16:26:05.605Z,17.65
2019-03-31T16:28:36.609Z,17.58
2019-03-31T16:31:07.634Z,17.54
2019-03-31T16:33:38.593Z,17.46
2019-03-31T16:36:11.876Z,17.40
2019-03-31T16:38:42.898Z,17.35
2019-03-31T16:41:13.923Z,17.26
2019-03-31T16:43:44.863Z,17.17
2019-03-31T16:46:15.894Z,17.11
2019-03-31T16:48:46.919Z,17.03
2019-03-31T16:51:18.001Z,16.93
2019-03-31T16:53:49.014Z,16.87
2019-03-31T16:56:20.032Z,16.81
2019-03-31T16:58:50.977Z,16.73
2019-03-31T17:01:21.995Z,16.74
2019-03-31T17:03:53.079Z,16.66
2019-03-31T17:06:24.996Z,16.59
2019-03-31T17:08:56.085Z,16.55
2019-03-31T17:11:27.067Z,16.46
2019-03-31T17:13:58.049Z,16.40
2019-03-31T17:16:29.123Z,16.42
2019-03-31T17:19:00.176Z,16.41
2019-03-31T17:21:31.107Z,16.44
2019-03-31T17:24:02.073Z,16.41
2019-03-31T17:26:34.037Z,16.37
2019-03-31T17:29:07.722Z,16.30
2019-03-31T17:31:40.350Z,16.32
2019-03-31T17:34:13.279Z,16.25
2019-03-31T17:36:46.014Z,16.21
2019-03-31T17:39:24.771Z,16.17
2019-03-31T17:41:54.280Z,16.21
2019-03-31T17:44:26.259Z,16.18
2019-03-31T17:46:56.984Z,16.12
2019-03-31T17:49:28.067Z,16.06
2019-03-31T17:52:02.873Z,15.97
2019-03-31T17:54:41.266Z,16.01
2019-03-31T17:57:12.190Z,15.93
2019-03-31T17:59:43.233Z,15.88
2019-03-31T18:02:16.948Z,15.86
2019-03-31T18:04:47.939Z,15.82
2019-03-31T18:07:18.851Z,15.80
2019-03-31T18:09:49.901Z,15.82
2019-03-31T18:12:20.839Z,15.81
2019-03-31T18:14:51.919Z,15.78
2019-03-31T18:17:22.870Z,15.76
2019-03-31T18:19:53.954Z,15.76
2019-03-31T18:22:25.021Z,15.71
2019-03-31T18:24:55.958Z,15.69
2019-03-31T18:27:27.894Z,15.64
2019-03-31T18:29:58.935Z,15.61
2019-03-31T18:32:30.289Z,15.57
2019-03-31T18:35:01.344Z,15.59
2019-03-31T18:37:34.047Z,15.58
2019-03-31T18:40:07.574Z,15.59
2019-03-31T18:42:38.141Z,15.55
2019-03-31T18:45:08.881Z,15.54
2019-03-31T18:47:39.861Z,15.54
2019-03-31T18:50:10.880Z,15.49
2019-03-31T18:52:41.882Z,15.47
2019-03-31T18:55:20.420Z,15.40
2019-03-31T18:58:06.417Z,15.40
2019-03-31T19:00:39.056Z,15.37
2019-03-31T19:03:17.757Z,15.26
2019-03-31T19:06:06.555Z,15.21
2019-03-31T19:08:46.545Z,15.10
2019-03-31T19:11:24.860Z,15.00
2019-03-31T19:14:13.838Z,14.94
2019-03-31T19:17:02.358Z,14.92
2019-03-31T19:19:44.137Z,14.79
2019-03-31T19:22:25.605Z,14.71
2019-03-31T19:24:58.230Z,14.79
2019-03-31T19:27:35.804Z,14.74
2019-03-31T19:30:08.509Z,14.75
2019-03-31T19:33:00.840Z,14.70
2019-03-31T19:35:49.903Z,14.67
2019-03-31T19:38:39.090Z,14.51
2019-03-31T19:41:17.620Z,14.43
2019-03-31T19:44:07.739Z,14.40
2019-03-31T19:46:40.380Z,14.40
2019-03-31T19:49:13.416Z,14.32
2019-03-31T19:51:46.089Z,14.39
2019-03-31T19:54:21.934Z,14.35
2019-03-31T19:56:59.330Z,14.41
2019-03-31T19:59:43.699Z,14.32
2019-03-31T20:02:19.430Z,14.28
2019-03-31T20:05:07.045Z,14.20
2019-03-31T20:07:40.013Z,14.22
2019-03-31T20:10:29.945Z,14.14
2019-03-31T20:13:19.062Z,14.04
2019-03-31T20:16:08.680Z,13.94
2019-03-31T20:18:44.161Z,13.88
2019-03-31T20:21:31.041Z,13.85
2019-03-31T20:24:08.063Z,13.80
2019-03-31T20:26:55.849Z,13.77
2019-03-31T20:29:32.988Z,13.70
2019-03-31T20:32:06.119Z,13.72
2019-03-31T20:34:42.194Z,13.77
2019-03-31T20:37:16.627Z,13.78
2019-03-31T20:40:11.459Z,13.77
2019-03-31T20:42:57.527Z,13.69
2019-03-31T20:45:34.071Z,13.77
2019-03-31T20:48:05.222Z,13.92
2019-03-31T20:50:38.152Z,14.06
2019-03-31T20:53:17.969Z,14.12
2019-03-31T20:55:51.584Z,14.30
2019-03-31T20:58:22.700Z,14.56
2019-03-31T21:00:55.633Z,14.67
2019-03-31T21:03:28.524Z,14.70
2019-03-31T21:06:02.801Z,14.72
2019-03-31T21:08:36.355Z,14.71
2019-03-31T21:11:14.677Z,14.62
2019-03-31T21:13:47.370Z,14.52
2019-03-31T21:16:19.074Z,14.41
2019-03-31T21:18:53.074Z,14.34
2019-03-31T21:21:27.240Z,14.21
2019-03-31T21:23:59.952Z,14.06
2019-03-31T21:26:35.171Z,13.93
2019-03-31T21:29:06.342Z,13.90
2019-03-31T21:31:42.901Z,13.80
2019-03-31T21:34:14.520Z,13.67
2019-03-31T21:36:47.052Z,13.62
2019-03-31T21:39:18.073Z,13.52
2019-03-31T21:41:52.241Z,13.43
2019-03-31T21:44:27.777Z,13.32
2019-03-31T21:46:58.821Z,13.33
2019-03-31T21:49:32.240Z,13.26
2019-03-31T21:52:06.566Z,13.14
2019-03-31T21:54:37.525Z,13.08
2019-03-31T21:57:08.655Z,12.97
2019-03-31T21:59:44.817Z,12.92
2019-03-31T22:02:17.364Z,12.85
2019-03-31T22:04:51.420Z,12.83
2019-03-31T22:07:22.703Z,12.75
2019-03-31T22:09:55.317Z,12.64
2019-03-31T22:12:26.280Z,12.59
2019-03-31T22:14:57.296Z,12.50
2019-03-31T22:17:28.275Z,12.47
2019-03-31T22:19:59.277Z,12.43
2019-03-31T22:22:30.257Z,12.40
2019-03-31T22:25:01.229Z,12.36
2019-03-31T22:27:36.013Z,12.26
2019-03-31T22:30:10.531Z,12.29
2019-03-31T22:32:42.422Z,12.43
2019-03-31T22:35:13.678Z,12.45
2019-03-31T22:37:46.264Z,12.53
2019-03-31T22:40:17.410Z,12.57
2019-03-31T22:42:48.467Z,12.66
2019-03-31T22:45:21.159Z,12.63
2019-03-31T22:47:52.160Z,12.61
2019-03-31T22:50:23.140Z,12.58
2019-03-31T22:52:54.828Z,12.56
2019-03-31T22:55:25.841Z,12.45
2019-03-31T22:57:56.751Z,12.45
2019-03-31T23:00:27.896Z,12.39
2019-03-31T23:02:58.808Z,12.31
2019-03-31T23:05:29.787Z,12.30
2019-03-31T23:08:00.947Z,12.07
2019-03-31T23:10:31.920Z,11.94
2019-03-31T23:13:02.830Z,11.80
2019-03-31T23:15:33.932Z,11.81
2019-03-31T23:18:04.887Z,11.96
2019-03-31T23:20:35.900Z,11.93
2019-03-31T23:23:06.844Z,11.93
2019-03-31T23:25:37.797Z,11.84
2019-03-31T23:28:08.810Z,11.93
2019-03-31T23:30:39.756Z,11.99
2019-03-31T23:33:11.557Z,11.90
2019-03-31T23:35:42.555Z,12.03
2019-03-31T23:38:13.842Z,12.05
2019-03-31T23:40:44.819Z,12.13
2019-03-31T23:43:15.743Z,12.07
2019-03-31T23:45:46.693Z,12.17
2019-03-31T23:48:17.624Z,12.09
2019-03-31T23:50:48.663Z,12.14
2019-03-31T23:53:19.662Z,12.15
2019-03-31T23:55:50.628Z,12.27
2019-03-31T23:58:21.545Z,12.36
